MLX weather

Malatya Erhaç Airport
Malatya, Malatya Province, Turkey

Public forecast

Using degrees Celsius for public forecast. Weather courtesy of forecast.io.

Current aviation weather report (METAR) for Malatya Erhaç Airport

Retrieved 2020/07/16 13:20 UTC (18 minutes ago):

LTAT 161320Z 10006KT 040V160 9999 FEW040 36/04 Q1006 NOSIG RMK RWY03 VRB05KT

Aviation forecast (TAF) for Malatya Erhaç Airport

Retrieved 2020/07/16 12:00 UTC (2 hours ago):

TAF LTAT 161040Z 1612/1712 VRB02KT 9999 FEW040 BECMG 1615/1618 CAVOK